Time;durP1;ratioP1;P1;durP2;ratioP2;P2;SDS_P1;SDS_P2;PMS_P1;PMS_P2;Temp;Humidity;BMP_temperature;BMP_pressure;BME280_temperature;BME280_humidity;BME280_pressure;Samples;Min_cycle;Max_cycle;Signal;HPM_P1;HPM_P2
2023/04/01 00:00:36;;;;;;;;;4.75;3.75;;;;;15.64;43.73;97032.09;6059727;28;96704;-63
2023/04/01 00:03:40;;;;;;;;;2.00;2.00;;;;;15.63;44.00;97035.13;6098732;28;96306;-64
2023/04/01 00:06:45;;;;;;;;;4.00;4.00;;;;;15.64;44.07;97029.38;6097581;28;96476;-64
2023/04/01 00:09:48;;;;;;;;;4.00;4.00;;;;;15.57;44.00;97018.94;6099704;28;96515;-63
2023/04/01 00:12:51;;;;;;;;;4.60;4.60;;;;;15.68;44.15;97025.00;6090229;28;96273;-63
2023/04/01 00:15:56;;;;;;;;;4.00;4.00;;;;;15.53;44.47;97009.78;6098956;28;96335;-63
2023/04/01 00:19:01;;;;;;;;;4.75;4.00;;;;;15.51;44.42;97020.13;6099499;28;96304;-63
2023/04/01 00:22:06;;;;;;;;;4.00;4.00;;;;;15.54;44.39;97016.00;6079179;28;96718;-63
2023/04/01 00:25:10;;;;;;;;;2.00;2.00;;;;;15.55;44.55;97009.44;6096334;28;96426;-63
2023/04/01 00:28:14;;;;;;;;;4.00;4.00;;;;;15.53;44.81;97015.22;6095364;28;96813;-63
2023/04/01 00:31:18;;;;;;;;;4.00;4.00;;;;;15.50;44.81;97004.06;6077468;28;97244;-63
2023/04/01 00:34:22;;;;;;;;;5.80;5.80;;;;;15.44;45.12;96994.44;6089930;28;97539;-63
2023/04/01 00:37:27;;;;;;;;;3.00;3.00;;;;;15.37;45.14;96997.53;6092476;28;96243;-63
2023/04/01 00:40:33;;;;;;;;;4.60;4.60;;;;;15.43;45.02;97000.97;6080236;28;96369;-63
2023/04/01 00:43:37;;;;;;;;;5.60;5.60;;;;;15.43;44.99;96990.91;6096844;28;96849;-63
2023/04/01 00:46:40;;;;;;;;;6.00;6.00;;;;;15.37;45.23;96994.81;6079512;28;98536;-62
2023/04/01 00:49:48;;;;;;;;;3.00;3.00;;;;;15.35;45.61;96997.00;6062256;28;96510;-62
2023/04/01 00:52:53;;;;;;;;;4.00;4.00;;;;;15.41;45.30;96998.53;6063199;28;98387;-64
2023/04/01 00:56:02;;;;;;;;;4.00;4.00;;;;;15.39;45.45;96995.34;6080394;28;96402;-64
2023/04/01 00:59:11;;;;;;;;;3.60;2.00;;;;;15.38;45.46;96992.91;6076255;28;96714;-63
2023/04/01 01:02:17;;;;;;;;;3.00;3.00;;;;;15.33;45.61;96987.56;6080737;28;96591;-63
2023/04/01 01:05:30;;;;;;;;;4.00;4.00;;;;;15.29;45.76;96994.69;6079979;28;96727;-63
2023/04/01 01:09:03;;;;;;;;;4.00;4.00;;;;;15.37;45.67;96994.81;6082030;28;96744;-63
2023/04/01 01:12:12;;;;;;;;;3.00;2.00;;;;;15.34;46.00;96987.28;6081419;28;96254;-63
2023/04/01 01:15:24;;;;;;;;;3.00;3.00;;;;;15.42;45.70;97000.16;6066739;28;96737;-63
2023/04/01 01:18:35;;;;;;;;;4.00;4.00;;;;;15.44;45.61;97014.22;6082354;28;96680;-63
2023/04/01 01:22:05;;;;;;;;;4.00;4.00;;;;;15.42;45.78;97010.22;6082447;28;96515;-62
2023/04/01 01:25:26;;;;;;;;;2.00;2.00;;;;;15.50;45.62;97009.50;6072551;28;96632;-63
2023/04/01 01:28:45;;;;;;;;;3.60;3.60;;;;;15.44;45.79;97010.72;6074201;28;96600;-64
2023/04/01 01:31:59;;;;;;;;;4.00;3.40;;;;;15.45;45.87;97012.31;6081238;28;96939;-63
2023/04/01 01:35:20;;;;;;;;;4.20;4.20;;;;;15.48;45.83;97006.31;6063769;28;96477;-63
2023/04/01 01:38:27;;;;;;;;;4.25;4.25;;;;;15.37;46.08;96999.44;6081087;28;97110;-62
2023/04/01 01:41:42;;;;;;;;;4.60;4.60;;;;;15.35;46.29;97001.63;6078549;28;96453;-64
2023/04/01 01:44:48;;;;;;;;;3.00;3.00;;;;;15.35;46.11;97016.00;6089859;28;96338;-63
2023/04/01 01:47:53;;;;;;;;;3.75;3.75;;;;;15.36;46.35;97014.91;6091999;28;96441;-63
2023/04/01 01:50:59;;;;;;;;;4.00;4.00;;;;;15.37;46.27;97013.00;6080381;28;96297;-63
2023/04/01 01:54:02;;;;;;;;;4.00;3.50;;;;;15.43;46.12;97018.06;6064307;28;96578;-63
2023/04/01 01:57:11;;;;;;;;;3.60;3.60;;;;;15.47;46.06;97016.34;6064590;28;97178;-63
2023/04/01 02:00:20;;;;;;;;;5.40;5.40;;;;;15.46;46.10;97016.66;6081902;28;96302;-63
2023/04/01 02:03:26;;;;;;;;;2.00;2.00;;;;;15.43;46.24;97028.13;6053323;28;96848;-63
2023/04/01 02:06:35;;;;;;;;;4.00;4.00;;;;;15.50;45.81;97015.75;6084900;28;96629;-63
2023/04/01 02:09:40;;;;;;;;;4.40;4.40;;;;;15.46;46.13;97019.38;6046269;28;96896;-62
2023/04/01 02:12:47;;;;;;;;;5.00;4.00;;;;;15.39;46.40;97018.97;6077804;28;96235;-64
2023/04/01 02:15:55;;;;;;;;;5.00;5.00;;;;;15.38;46.01;97020.88;6094842;28;96581;-63
2023/04/01 02:19:00;;;;;;;;;5.00;5.00;;;;;15.42;46.14;97029.22;6087214;28;98587;-63
2023/04/01 02:22:09;;;;;;;;;6.50;6.50;;;;;15.42;46.29;97026.50;6084003;28;96228;-63
2023/04/01 02:25:16;;;;;;;;;2.00;2.00;;;;;15.30;46.58;97028.84;6083894;28;96669;-63
2023/04/01 02:28:20;;;;;;;;;3.80;3.80;;;;;15.30;46.52;97021.53;6081844;28;98520;-64
2023/04/01 02:31:24;;;;;;;;;3.75;3.75;;;;;15.25;46.51;97018.13;6079136;28;97098;-63
2023/04/01 02:34:29;;;;;;;;;3.40;3.40;;;;;15.15;46.91;97021.78;6085826;28;98731;-63
2023/04/01 02:37:34;;;;;;;;;2.60;2.60;;;;;15.03;46.91;97016.81;6084790;28;99353;-63
2023/04/01 02:40:45;;;;;;;;;3.25;3.25;;;;;15.02;47.21;97030.69;6101874;28;97104;-62
2023/04/01 02:43:49;;;;;;;;;4.00;3.40;;;;;14.96;47.28;97032.66;6084331;28;96376;-63
2023/04/01 02:46:53;;;;;;;;;3.00;3.00;;;;;14.97;47.38;97037.00;6069681;28;99092;-64
2023/04/01 02:49:58;;;;;;;;;3.60;3.00;;;;;14.90;47.56;97042.00;6085285;28;96958;-63
2023/04/01 02:53:05;;;;;;;;;3.00;3.00;;;;;14.82;47.79;97052.69;6091107;28;96498;-64
2023/04/01 02:56:09;;;;;;;;;4.00;4.00;;;;;14.87;47.58;97039.84;6084702;28;96939;-63
2023/04/01 02:59:13;;;;;;;;;5.50;5.50;;;;;14.84;47.95;97032.31;6100921;28;96349;-63
2023/04/01 03:02:16;;;;;;;;;4.00;4.00;;;;;14.72;47.71;97032.75;6091474;28;96176;-64
2023/04/01 03:05:20;;;;;;;;;3.80;3.00;;;;;14.82;48.02;97049.97;6085616;28;96934;-63
2023/04/01 03:08:25;;;;;;;;;5.00;5.00;;;;;14.78;48.08;97047.03;6111339;28;96559;-63
2023/04/01 03:11:29;;;;;;;;;7.20;6.60;;;;;14.80;47.90;97050.28;6082107;28;96488;-63
2023/04/01 03:14:32;;;;;;;;;5.00;5.00;;;;;14.83;47.86;97051.59;6099310;28;97020;-63
2023/04/01 03:17:35;;;;;;;;;3.50;3.50;;;;;14.82;47.74;97052.69;6096010;28;96267;-63
2023/04/01 03:20:39;;;;;;;;;6.40;6.00;;;;;14.89;47.89;97050.41;6088162;28;96385;-63
2023/04/01 03:23:43;;;;;;;;;5.40;5.40;;;;;14.99;47.58;97045.66;6054199;28;98409;-63
2023/04/01 03:26:47;;;;;;;;;4.80;3.20;;;;;15.05;47.42;97044.44;6080908;28;96682;-62
2023/04/01 03:29:50;;;;;;;;;3.20;2.20;;;;;15.02;47.52;97038.81;6078487;28;98605;-63
2023/04/01 03:32:54;;;;;;;;;3.33;3.33;;;;;14.91;47.50;97034.63;6092389;28;96291;-64
2023/04/01 03:35:58;;;;;;;;;7.00;6.00;;;;;14.89;47.98;97050.41;6078759;28;98500;-63
2023/04/01 03:39:04;;;;;;;;;3.60;3.60;;;;;14.90;47.96;97044.72;6080505;28;96591;-63
2023/04/01 03:42:15;;;;;;;;;5.00;4.00;;;;;14.88;47.94;97051.50;6079215;28;96469;-63
2023/04/01 03:45:19;;;;;;;;;5.00;5.00;;;;;14.95;47.93;97036.50;6062654;28;99820;-63
2023/04/01 03:48:22;;;;;;;;;5.00;4.50;;;;;14.95;47.91;97041.13;6096330;28;97021;-63
2023/04/01 03:51:25;;;;;;;;;6.00;6.00;;;;;14.98;47.88;97043.22;6062349;28;98475;-63
2023/04/01 03:54:30;;;;;;;;;7.00;7.00;;;;;15.01;47.71;97043.44;6079227;28;96362;-63
2023/04/01 03:57:34;;;;;;;;;5.00;5.00;;;;;14.95;47.77;97044.63;6081897;28;96618;-63
2023/04/01 04:00:49;;;;;;;;;8.75;7.00;;;;;15.03;47.84;97046.66;6081690;28;96413;-63
2023/04/01 04:03:53;;;;;;;;;7.00;7.00;;;;;15.06;47.72;97047.97;6064515;28;97045;-63
2023/04/01 04:06:58;;;;;;;;;5.00;5.00;;;;;15.05;47.76;97055.31;6080336;28;96700;-63
2023/04/01 04:10:03;;;;;;;;;7.40;7.00;;;;;15.04;47.80;97058.34;6077168;28;97537;-63
2023/04/01 04:13:06;;;;;;;;;7.00;7.00;;;;;14.98;47.98;97051.38;6075933;28;96356;-63
2023/04/01 04:16:15;;;;;;;;;6.00;6.00;;;;;14.92;48.35;97066.91;6084916;28;96302;-63
2023/04/01 04:19:22;;;;;;;;;5.00;5.00;;;;;14.94;48.31;97070.16;6068271;28;96475;-63
2023/04/01 04:22:25;;;;;;;;;8.00;8.00;;;;;14.99;48.25;97061.13;6080980;28;96370;-63
2023/04/01 04:25:31;;;;;;;;;6.75;6.75;;;;;15.05;48.12;97059.97;6088109;28;96306;-63
2023/04/01 04:28:35;;;;;;;;;7.00;6.00;;;;;15.00;48.06;97057.31;6064805;28;96477;-62
2023/04/01 04:31:38;;;;;;;;;6.00;6.00;;;;;15.05;47.94;97063.44;6067742;28;96357;-62
2023/04/01 04:34:42;;;;;;;;;6.40;5.60;;;;;15.10;47.93;97068.03;6086671;28;96221;-62
2023/04/01 04:37:46;;;;;;;;;5.00;5.00;;;;;15.09;48.01;97059.06;6081463;28;96992;-61
2023/04/01 04:40:51;;;;;;;;;6.00;6.00;;;;;15.13;47.83;97067.41;6065117;28;96726;-62
2023/04/01 04:43:56;;;;;;;;;9.50;9.50;;;;;15.19;47.78;97066.25;6082736;28;97273;-62
2023/04/01 04:47:00;;;;;;;;;5.40;5.40;;;;;15.15;47.90;97070.63;6067484;28;96329;-62
2023/04/01 04:50:04;;;;;;;;;7.00;6.75;;;;;15.15;47.83;97067.91;6072524;28;96521;-62
2023/04/01 04:53:10;;;;;;;;;4.00;4.00;;;;;15.20;47.64;97064.34;6069979;28;96948;-63
2023/04/01 04:56:18;;;;;;;;;5.40;5.40;;;;;15.29;47.63;97068.00;6088488;28;96740;-61
2023/04/01 04:59:29;;;;;;;;;4.75;4.00;;;;;15.36;47.43;97077.34;6090252;28;96360;-62
2023/04/01 05:02:41;;;;;;;;;7.00;7.00;;;;;15.40;47.31;97072.13;6076885;28;96354;-63
2023/04/01 05:05:50;;;;;;;;;6.00;6.00;;;;;15.44;47.30;97082.09;6087586;28;96348;-62
2023/04/01 05:08:54;;;;;;;;;4.50;4.50;;;;;15.29;47.61;97076.94;6068771;28;96397;-62
2023/04/01 05:12:00;;;;;;;;;3.00;3.00;;;;;15.35;47.47;97070.31;6073605;28;96437;-62
2023/04/01 05:15:12;;;;;;;;;5.40;5.40;;;;;15.37;47.53;97075.47;6074375;28;96867;-63
2023/04/01 05:18:15;;;;;;;;;3.25;3.25;;;;;15.36;47.52;97080.06;6065975;28;98363;-62
2023/04/01 05:21:19;;;;;;;;;4.00;4.00;;;;;15.37;47.75;97080.88;6066235;28;96333;-62
2023/04/01 05:24:22;;;;;;;;;5.00;5.00;;;;;15.37;47.88;97084.41;6071670;28;97191;-62
2023/04/01 05:27:28;;;;;;;;;3.00;3.00;;;;;15.32;48.66;97083.69;6054998;28;98418;-62
2023/04/01 05:30:31;;;;;;;;;3.50;3.50;;;;;15.32;48.97;97080.97;6066663;28;96326;-62
2023/04/01 05:33:37;;;;;;;;;4.40;4.40;;;;;15.29;49.36;97079.66;6066533;28;96268;-62
2023/04/01 05:36:41;;;;;;;;;4.00;3.00;;;;;15.23;49.43;97069.16;6067056;28;96636;-62
2023/04/01 05:39:44;;;;;;;;;4.60;4.60;;;;;15.24;49.48;97068.06;6080452;28;97389;-62
2023/04/01 05:42:49;;;;;;;;;4.00;4.00;;;;;15.40;49.51;97069.41;6071475;28;96528;-62
2023/04/01 05:45:53;;;;;;;;;4.00;3.00;;;;;15.59;49.20;97078.34;6065562;28;96963;-62
2023/04/01 05:49:13;;;;;;;;;5.00;5.00;;;;;15.58;49.24;97074.88;6071644;28;96486;-62
2023/04/01 05:52:16;;;;;;;;;6.00;5.67;;;;;15.70;48.87;97070.84;6093370;28;97043;-62
2023/04/01 05:55:20;;;;;;;;;5.80;5.80;;;;;15.69;49.19;97078.19;6095359;28;96281;-62
2023/04/01 05:58:26;;;;;;;;;3.40;3.40;;;;;15.76;48.84;97078.63;6071635;28;97963;-61
2023/04/01 06:01:30;;;;;;;;;5.00;5.00;;;;;15.92;48.46;97071.81;6077404;28;97381;-62
2023/04/01 06:04:38;;;;;;;;;4.40;4.40;;;;;16.04;48.18;97074.84;6071640;28;96460;-62
2023/04/01 06:07:42;;;;;;;;;6.00;6.00;;;;;16.09;48.01;97073.13;6073685;28;98355;-62
2023/04/01 06:11:00;;;;;;;;;7.00;7.00;;;;;16.21;47.59;97071.53;6089794;28;96552;-62
2023/04/01 06:14:28;;;;;;;;;6.00;5.60;;;;;16.35;47.40;97071.53;6077362;28;96713;-62
2023/04/01 06:17:48;;;;;;;;;4.00;4.00;;;;;16.34;47.22;97057.13;6075837;28;98424;-62
2023/04/01 06:21:04;;;;;;;;;6.00;5.60;;;;;16.47;46.91;97063.66;6092465;28;96509;-62
2023/04/01 06:24:23;;;;;;;;;6.80;5.80;;;;;16.55;46.83;97071.13;6079529;28;96376;-62
2023/04/01 06:27:47;;;;;;;;;7.00;6.00;;;;;16.56;46.89;97074.66;6094788;28;96106;-62
2023/04/01 06:31:04;;;;;;;;;7.00;7.00;;;;;16.58;46.52;97073.25;6071071;28;96761;-63
2023/04/01 06:34:34;;;;;;;;;5.00;4.40;;;;;16.51;46.43;97069.31;6084219;28;96578;-63
2023/04/01 06:38:04;;;;;;;;;6.00;6.00;;;;;16.54;46.54;97076.84;6082881;28;96492;-63
2023/04/01 06:41:48;;;;;;;;;6.50;6.25;;;;;16.53;46.63;97080.69;6083855;28;96362;-64
2023/04/01 06:45:07;;;;;;;;;7.00;7.00;;;;;16.67;46.37;97081.50;6056729;28;96877;-63
2023/04/01 06:48:42;;;;;;;;;6.20;6.20;;;;;16.74;46.10;97084.63;6089697;28;96721;-63
2023/04/01 06:52:17;;;;;;;;;5.40;5.00;;;;;16.92;45.76;97080.94;6085531;28;96246;-63
2023/04/01 06:55:45;;;;;;;;;6.00;5.60;;;;;17.29;45.25;97083.38;6084612;28;96590;-63
2023/04/01 06:58:56;;;;;;;;;6.40;6.40;;;;;17.53;44.38;97079.53;6052824;28;97038;-64
2023/04/01 07:02:07;;;;;;;;;7.50;7.50;;;;;17.62;43.89;97083.16;6072312;28;96443;-64
2023/04/01 07:05:14;;;;;;;;;6.00;5.60;;;;;17.59;43.82;97076.38;6094424;28;96260;-64
2023/04/01 07:08:23;;;;;;;;;4.80;4.80;;;;;17.39;43.28;97068.72;6078653;28;98814;-63
2023/04/01 07:11:31;;;;;;;;;4.60;4.00;;;;;17.51;43.27;97088.00;6070526;28;96349;-64
2023/04/01 07:14:56;;;;;;;;;7.00;7.00;;;;;17.35;43.06;97083.25;6072654;28;99003;-63
2023/04/01 07:18:06;;;;;;;;;5.00;5.00;;;;;17.23;43.64;97087.31;6083153;28;96362;-64
2023/04/01 07:21:24;;;;;;;;;4.00;4.00;;;;;17.37;43.30;97076.38;6056761;28;96699;-64
2023/04/01 07:24:34;;;;;;;;;7.50;7.00;;;;;17.43;43.34;97079.78;6068822;28;96360;-63
2023/04/01 07:27:42;;;;;;;;;5.00;5.00;;;;;17.32;43.23;97088.19;6083593;28;96480;-64
2023/04/01 07:30:58;;;;;;;;;6.60;6.60;;;;;17.21;42.93;97058.78;6089401;28;96483;-63
2023/04/01 07:34:09;;;;;;;;;6.00;6.00;;;;;17.19;43.09;97083.59;6071146;28;96420;-63
2023/04/01 07:37:19;;;;;;;;;7.00;6.25;;;;;17.13;43.19;97073.94;6093696;28;96857;-64
2023/04/01 07:40:33;;;;;;;;;9.60;9.60;;;;;17.48;43.00;97069.56;6079726;28;98295;-64
2023/04/01 07:43:53;;;;;;;;;6.80;5.80;;;;;17.76;42.24;97083.88;6063132;28;96907;-63
2023/04/01 07:47:13;;;;;;;;;6.40;6.00;;;;;17.62;42.34;97077.69;6080196;28;96382;-63
2023/04/01 07:50:23;;;;;;;;;7.00;7.00;;;;;17.64;42.29;97076.25;6077894;28;96580;-64
2023/04/01 07:53:37;;;;;;;;;5.00;5.00;;;;;17.69;42.18;97078.84;6084118;28;96358;-64
2023/04/01 07:56:46;;;;;;;;;5.50;5.50;;;;;17.63;42.26;97087.50;6095983;28;97423;-63
2023/04/01 08:00:02;;;;;;;;;4.60;4.40;;;;;17.59;42.18;97081.06;6079625;28;96389;-63
2023/04/01 08:03:47;;;;;;;;;4.60;4.60;;;;;17.46;42.32;97088.13;6078197;28;96315;-64
2023/04/01 08:06:57;;;;;;;;;5.20;5.00;;;;;17.33;42.69;97089.00;6079608;28;96727;-64
2023/04/01 08:10:12;;;;;;;;;7.00;7.00;;;;;17.32;42.84;97085.47;6078919;28;96481;-64
2023/04/01 08:13:43;;;;;;;;;6.50;6.50;;;;;17.33;42.67;97083.56;6095680;28;96301;-63
2023/04/01 08:17:13;;;;;;;;;8.00;8.00;;;;;17.38;42.65;97093.53;6091578;28;96181;-63
2023/04/01 08:20:29;;;;;;;;;7.00;7.00;;;;;17.42;42.73;97106.22;6080025;28;96133;-64
2023/04/01 08:23:38;;;;;;;;;7.00;6.00;;;;;17.70;42.01;97091.38;6093274;28;96813;-63
2023/04/01 08:26:48;;;;;;;;;8.40;8.00;;;;;17.85;41.45;97111.19;6081036;28;97064;-63
2023/04/01 08:29:59;;;;;;;;;7.00;6.00;;;;;18.08;41.57;97101.88;6074046;28;96323;-64
2023/04/01 08:33:11;;;;;;;;;6.40;6.00;;;;;18.01;41.13;97102.31;6065704;28;99314;-64
2023/04/01 08:36:18;;;;;;;;;6.40;6.40;;;;;17.79;41.68;97102.31;6066401;28;98363;-63
2023/04/01 08:39:32;;;;;;;;;9.20;9.00;;;;;17.82;41.46;97095.47;6064555;28;98806;-63
2023/04/01 08:42:55;;;;;;;;;7.00;7.00;;;;;18.02;41.93;97081.31;6081143;28;98509;-63
2023/04/01 08:46:23;;;;;;;;;7.80;7.00;;;;;18.40;41.91;97098.78;6087135;28;97978;-64
2023/04/01 08:49:47;;;;;;;;;5.80;5.20;;;;;18.59;40.48;97085.72;6052601;28;97510;-65
2023/04/01 08:53:11;;;;;;;;;7.33;7.33;;;;;18.87;39.60;97089.00;6082955;28;98482;-64
2023/04/01 08:56:22;;;;;;;;;9.00;7.00;;;;;18.63;39.62;97090.53;6070154;28;96562;-64
2023/04/01 08:59:46;;;;;;;;;7.00;6.33;;;;;19.02;39.50;97085.00;6058501;28;96760;-66
2023/04/01 09:03:35;;;;;;;;;5.50;5.50;;;;;19.99;38.11;97085.44;6083515;28;96965;-62
2023/04/01 09:06:49;;;;;;;;;4.40;3.60;;;;;19.63;37.94;97097.56;6067373;28;96308;-62
2023/04/01 09:10:28;;;;;;;;;6.60;6.60;;;;;20.48;36.99;97093.00;6070989;28;96940;-62
2023/04/01 09:13:58;;;;;;;;;6.75;6.75;;;;;21.27;34.29;97092.22;6052384;28;98688;-62
2023/04/01 09:17:40;;;;;;;;;5.25;5.25;;;;;21.12;35.02;97092.78;6073883;28;96209;-62
2023/04/01 09:20:59;;;;;;;;;5.80;5.80;;;;;20.53;35.94;97079.13;6062298;28;97479;-62
2023/04/01 09:24:41;;;;;;;;;4.00;3.60;;;;;20.19;36.55;97091.00;6068675;28;96734;-62
2023/04/01 09:27:49;;;;;;;;;5.00;5.00;;;;;20.12;36.90;97087.97;6072514;28;96491;-62
2023/04/01 09:31:22;;;;;;;;;8.00;8.00;;;;;20.25;36.49;97084.22;6091544;28;98334;-62
2023/04/01 09:34:55;;;;;;;;;4.50;4.50;;;;;20.77;35.59;97083.22;6062775;28;96603;-62
2023/04/01 09:38:21;;;;;;;;;6.60;6.60;;;;;20.68;35.84;97086.78;6079571;28;96461;-62
2023/04/01 09:41:43;;;;;;;;;5.00;5.00;;;;;21.04;34.92;97091.72;6086566;28;98157;-62
2023/04/01 09:44:59;;;;;;;;;6.00;5.20;;;;;20.75;35.96;97089.81;6070816;28;96542;-62
2023/04/01 09:48:15;;;;;;;;;6.00;6.00;;;;;20.46;36.49;97092.53;6063706;28;96843;-62
2023/04/01 09:51:34;;;;;;;;;7.00;6.00;;;;;20.27;36.62;97100.31;6048195;28;97445;-62
2023/04/01 09:54:59;;;;;;;;;6.00;6.00;;;;;19.96;37.37;97097.84;6064262;28;98159;-62
2023/04/01 09:58:43;;;;;;;;;4.00;4.00;;;;;19.69;37.69;97096.28;6070546;28;96526;-62
2023/04/01 10:02:56;;;;;;;;;7.50;7.50;;;;;19.57;38.63;97104.31;6018735;28;97272;-62
2023/04/01 10:06:48;;;;;;;;;6.80;6.80;;;;;19.44;38.58;97114.31;6025575;28;96428;-62
2023/04/01 10:10:34;;;;;;;;;8.40;8.40;;;;;19.20;39.07;97108.50;6040160;28;96791;-62
2023/04/01 10:14:16;;;;;;;;;5.00;5.00;;;;;18.95;39.86;97117.44;6042732;28;97083;-64
2023/04/01 10:17:47;;;;;;;;;8.00;7.80;;;;;18.83;40.19;97120.78;6033891;28;96653;-63
2023/04/01 10:21:18;;;;;;;;;5.80;5.80;;;;;18.52;41.16;97126.28;6043877;28;96304;-65
2023/04/01 10:24:48;;;;;;;;;7.00;6.60;;;;;18.35;41.55;97123.47;6016809;28;99009;-66
2023/04/01 10:28:18;;;;;;;;;8.80;8.00;;;;;18.22;41.84;97129.84;6037496;28;96728;-66
2023/04/01 10:32:07;;;;;;;;;6.75;6.00;;;;;18.03;42.28;97148.34;6024600;28;98832;-66
2023/04/01 10:35:56;;;;;;;;;7.50;7.50;;;;;17.92;42.33;97141.53;6052331;28;96847;-66
2023/04/01 10:39:29;;;;;;;;;8.00;8.00;;;;;17.91;42.45;97139.94;6069953;28;96911;-66
2023/04/01 10:43:23;;;;;;;;;8.00;7.50;;;;;17.95;42.94;97128.09;6071396;28;96457;-66
2023/04/01 10:47:15;;;;;;;;;7.00;6.25;;;;;17.98;43.10;97132.94;6065760;28;96396;-66
2023/04/01 10:50:52;;;;;;;;;7.00;7.00;;;;;18.10;42.94;97141.31;6064455;28;96604;-66
2023/04/01 10:54:22;;;;;;;;;5.00;5.00;;;;;18.14;42.84;97139.56;6047864;28;96758;-66
2023/04/01 10:58:13;;;;;;;;;6.20;6.20;;;;;18.21;42.85;97141.06;6066024;28;96289;-66
2023/04/01 11:02:13;;;;;;;;;7.60;7.60;;;;;18.83;40.77;97141.81;6072506;28;96990;-66
2023/04/01 11:06:07;;;;;;;;;8.00;8.00;;;;;19.38;39.35;97131.97;6061592;28;97449;-66
2023/04/01 11:09:48;;;;;;;;;8.00;7.00;;;;;19.94;38.09;97134.84;6057765;28;96335;-65
2023/04/01 11:13:11;;;;;;;;;6.50;6.00;;;;;20.13;37.51;97127.09;6062952;28;96500;-66
2023/04/01 11:16:48;;;;;;;;;9.00;8.50;;;;;19.80;37.48;97135.81;6070947;28;97121;-65
2023/04/01 11:20:21;;;;;;;;;5.40;5.40;;;;;19.27;38.86;97121.66;6059427;28;97030;-65
2023/04/01 11:23:41;;;;;;;;;6.00;6.00;;;;;19.30;39.11;97129.22;6092203;28;96413;-65
2023/04/01 11:27:00;;;;;;;;;6.60;6.60;;;;;19.20;39.37;97135.81;6079745;28;96404;-64
2023/04/01 11:30:34;;;;;;;;;6.60;6.00;;;;;19.11;39.31;97098.69;6088448;28;96639;-66
2023/04/01 11:33:45;;;;;;;;;6.00;5.00;;;;;19.28;38.84;97123.28;6069646;28;96670;-65
2023/04/01 11:37:04;;;;;;;;;5.40;5.40;;;;;20.46;38.22;97117.19;6093966;28;96674;-65
2023/04/01 11:40:24;;;;;;;;;8.00;7.75;;;;;21.22;35.86;97114.34;6093124;28;96302;-65
2023/04/01 11:43:56;;;;;;;;;5.00;5.00;;;;;21.64;34.04;97120.66;6092198;28;96687;-65
2023/04/01 11:47:40;;;;;;;;;5.00;5.00;;;;;21.92;33.74;97118.94;6071708;28;96961;-66
2023/04/01 11:51:02;;;;;;;;;5.00;5.00;;;;;21.57;34.09;97129.41;6062553;28;96621;-65
2023/04/01 11:54:23;;;;;;;;;7.00;7.00;;;;;21.30;35.54;97129.16;6093588;28;96251;-65
2023/04/01 11:57:47;;;;;;;;;6.00;6.00;;;;;20.90;37.88;97126.78;6074706;28;98407;-66
2023/04/01 12:01:04;;;;;;;;;8.60;8.60;;;;;20.46;38.94;97135.53;6086624;28;98380;-65
2023/04/01 12:04:41;;;;;;;;;7.00;7.00;;;;;19.93;40.95;97127.78;6086301;28;96863;-64
2023/04/01 12:08:11;;;;;;;;;9.00;9.00;;;;;20.09;40.64;97131.56;6074149;28;96655;-65
2023/04/01 12:11:21;;;;;;;;;10.00;9.25;;;;;20.77;39.35;97122.34;6093467;28;97513;-65
2023/04/01 12:14:33;;;;;;;;;8.40;8.40;;;;;20.93;38.24;97128.06;6059068;28;97058;-65
2023/04/01 12:17:46;;;;;;;;;7.00;6.80;;;;;21.18;37.36;97132.59;6075680;28;96789;-65
2023/04/01 12:20:55;;;;;;;;;6.00;5.80;;;;;21.74;36.38;97135.88;6071807;28;98907;-65
2023/04/01 12:24:37;;;;;;;;;9.40;8.40;;;;;22.08;34.82;97130.09;6092877;28;96946;-65
2023/04/01 12:27:55;;;;;;;;;13.33;11.33;;;;;21.85;35.07;97139.78;6090591;28;97401;-65
2023/04/01 12:31:15;;;;;;;;;12.00;11.00;;;;;21.27;36.15;97136.09;6088720;28;96596;-66
2023/04/01 12:34:43;;;;;;;;;15.40;14.40;;;;;20.87;36.89;97152.09;6076156;28;96296;-66
2023/04/01 12:37:57;;;;;;;;;9.00;8.40;;;;;20.71;37.28;97137.38;6070848;28;96688;-65
2023/04/01 12:41:14;;;;;;;;;7.00;7.00;;;;;21.05;36.59;97142.66;6075524;28;96919;-65
2023/04/01 12:44:40;;;;;;;;;7.00;7.00;;;;;21.37;36.58;97146.66;6093027;28;96390;-65
2023/04/01 12:48:02;;;;;;;;;8.00;8.00;;;;;21.15;35.97;97139.56;6087884;28;98352;-65
2023/04/01 12:51:38;;;;;;;;;7.40;7.00;;;;;20.85;36.53;97145.34;6084436;28;96715;-65
2023/04/01 12:55:07;;;;;;;;;8.40;7.40;;;;;20.59;36.92;97139.97;6087339;28;96280;-65
2023/04/01 12:58:39;;;;;;;;;9.00;8.50;;;;;20.37;37.50;97154.72;6089411;28;96666;-65
2023/04/01 13:02:02;;;;;;;;;6.40;6.00;;;;;20.05;37.86;97157.97;6093954;28;96690;-65
2023/04/01 13:05:25;;;;;;;;;7.00;7.00;;;;;19.67;38.77;97155.13;6092346;28;96311;-67
2023/04/01 13:08:42;;;;;;;;;7.00;6.00;;;;;19.50;39.88;97158.66;6091004;28;97345;-65
2023/04/01 13:12:02;;;;;;;;;8.00;8.00;;;;;19.38;40.21;97163.94;6096485;28;96244;-65
2023/04/01 13:15:19;;;;;;;;;8.40;8.00;;;;;19.35;40.88;97161.84;6096592;28;96328;-64
2023/04/01 13:18:33;;;;;;;;;10.50;9.50;;;;;19.47;41.48;97164.78;6077423;28;96243;-64
2023/04/01 13:21:51;;;;;;;;;9.33;9.33;;;;;19.49;40.79;97162.53;6054864;28;96592;-66
2023/04/01 13:25:01;;;;;;;;;9.00;8.00;;;;;19.46;40.17;97172.16;6090628;28;98835;-64
2023/04/01 13:28:13;;;;;;;;;8.25;8.25;;;;;19.53;39.85;97165.44;6077345;28;96846;-65
2023/04/01 13:31:42;;;;;;;;;5.33;5.33;;;;;19.14;41.53;97178.06;6079053;28;98455;-65
2023/04/01 13:35:04;;;;;;;;;7.20;6.60;;;;;18.67;42.02;97173.41;6091996;28;98362;-65
2023/04/01 13:38:40;;;;;;;;;9.00;7.00;;;;;18.54;42.60;97178.66;6096967;28;96304;-64
2023/04/01 13:42:07;;;;;;;;;11.40;11.40;;;;;18.57;43.37;97185.38;6110847;28;96365;-65
2023/04/01 13:45:16;;;;;;;;;5.00;5.00;;;;;18.66;42.79;97175.34;6113016;28;96667;-64
2023/04/01 13:48:40;;;;;;;;;7.00;7.00;;;;;18.53;43.73;97187.09;6101382;28;97443;-64
2023/04/01 13:52:16;;;;;;;;;7.20;6.80;;;;;18.44;44.38;97198.00;6103229;28;96242;-64
2023/04/01 13:55:31;;;;;;;;;7.00;6.20;;;;;18.40;44.58;97191.56;6114197;28;96364;-64
2023/04/01 13:58:50;;;;;;;;;4.25;4.25;;;;;18.33;44.08;97193.09;6118308;28;96945;-65
2023/04/01 14:02:08;;;;;;;;;7.00;7.00;;;;;18.18;44.53;97188.84;6091165;28;96863;-64
2023/04/01 14:06:02;;;;;;;;;7.00;7.00;;;;;17.87;44.67;97185.28;6119660;28;96369;-64
2023/04/01 14:09:36;;;;;;;;;7.00;7.00;;;;;17.66;44.79;97171.34;6023099;29;96555;-64
2023/04/01 14:12:48;;;;;;;;;4.80;4.80;;;;;17.89;44.75;97191.22;6044774;28;96433;-64
2023/04/01 14:16:06;;;;;;;;;5.00;5.00;;;;;17.87;44.93;97179.84;6112640;28;96865;-64
2023/04/01 14:19:28;;;;;;;;;6.00;6.00;;;;;17.80;44.97;97182.97;6115094;28;96924;-64
2023/04/01 14:22:40;;;;;;;;;7.00;7.00;;;;;17.96;44.76;97184.22;6120875;28;96241;-65
2023/04/01 14:25:59;;;;;;;;;6.00;5.60;;;;;17.82;44.97;97178.03;6116816;28;96513;-64
2023/04/01 14:29:12;;;;;;;;;6.00;6.00;;;;;17.87;45.12;97182.56;6116406;28;96498;-64
2023/04/01 14:32:31;;;;;;;;;7.60;7.60;;;;;17.96;45.29;97191.59;6117413;28;96346;-64
2023/04/01 14:35:39;;;;;;;;;11.25;11.25;;;;;17.96;45.33;97184.22;6117809;28;97160;-64
2023/04/01 14:39:01;;;;;;;;;6.60;6.40;;;;;17.93;45.38;97195.75;6094339;28;97650;-64
2023/04/01 14:42:42;;;;;;;;;6.00;6.00;;;;;17.77;45.80;97194.50;6101317;28;96293;-64
2023/04/01 14:45:51;;;;;;;;;7.50;7.50;;;;;17.90;45.86;97190.91;6057341;28;96744;-64
2023/04/01 14:48:58;;;;;;;;;7.00;7.00;;;;;17.66;46.64;97198.59;6111072;28;96339;-64
2023/04/01 14:52:11;;;;;;;;;9.00;9.00;;;;;17.66;46.58;97190.41;6117670;28;96410;-64
2023/04/01 14:55:28;;;;;;;;;9.20;8.60;;;;;17.63;46.94;97191.03;6117039;28;96284;-64
2023/04/01 14:58:44;;;;;;;;;9.00;9.00;;;;;17.63;47.06;97191.03;6115258;28;96704;-64
2023/04/01 15:01:56;;;;;;;;;6.80;6.80;;;;;17.72;47.03;97200.09;6115682;28;96337;-64
2023/04/01 15:05:15;;;;;;;;;10.60;10.60;;;;;17.68;47.30;97197.19;6115292;28;96586;-64
2023/04/01 15:08:23;;;;;;;;;8.00;8.00;;;;;17.64;47.32;97198.88;6121523;28;97165;-64
2023/04/01 15:11:43;;;;;;;;;9.00;9.00;;;;;17.64;47.54;97189.94;6123302;28;96579;-64
2023/04/01 15:14:57;;;;;;;;;10.00;10.00;;;;;17.51;48.00;97188.81;6118244;28;96653;-64
2023/04/01 15:18:10;;;;;;;;;12.80;11.00;;;;;17.61;48.00;97215.84;6118263;28;97247;-64
2023/04/01 15:21:33;;;;;;;;;13.25;12.00;;;;;17.78;47.83;97214.41;6100899;28;97439;-64